sensor_id;sensor_type;location;lat;lon;timestamp;P1;durP1;ratioP1;P2;durP2;ratioP2
18853;SDS011;9556;49.374;19.446;2023-05-10T00:00:59;6.10;;;4.00;;
18853;SDS011;9556;49.374;19.446;2023-05-10T00:03:26;5.40;;;3.58;;
18853;SDS011;9556;49.374;19.446;2023-05-10T00:05:55;5.30;;;3.35;;
18853;SDS011;9556;49.374;19.446;2023-05-10T00:08:22;6.63;;;3.40;;
18853;SDS011;9556;49.374;19.446;2023-05-10T00:10:49;5.68;;;3.50;;
18853;SDS011;9556;49.374;19.446;2023-05-10T00:13:16;5.93;;;3.10;;
18853;SDS011;9556;49.374;19.446;2023-05-10T00:15:43;5.55;;;3.45;;
18853;SDS011;9556;49.374;19.446;2023-05-10T00:18:10;4.35;;;3.13;;
18853;SDS011;9556;49.374;19.446;2023-05-10T00:20:38;6.88;;;3.55;;
18853;SDS011;9556;49.374;19.446;2023-05-10T00:23:06;5.88;;;3.25;;
18853;SDS011;9556;49.374;19.446;2023-05-10T00:25:33;5.55;;;3.35;;
18853;SDS011;9556;49.374;19.446;2023-05-10T00:28:00;5.55;;;3.42;;
18853;SDS011;9556;49.374;19.446;2023-05-10T00:30:28;5.40;;;3.42;;
18853;SDS011;9556;49.374;19.446;2023-05-10T00:32:55;5.05;;;3.38;;
18853;SDS011;9556;49.374;19.446;2023-05-10T00:35:22;5.63;;;3.35;;
18853;SDS011;9556;49.374;19.446;2023-05-10T00:37:49;4.75;;;3.13;;
18853;SDS011;9556;49.374;19.446;2023-05-10T00:40:18;5.97;;;3.40;;
18853;SDS011;9556;49.374;19.446;2023-05-10T00:42:45;6.25;;;3.60;;
18853;SDS011;9556;49.374;19.446;2023-05-10T00:45:12;5.20;;;3.30;;
18853;SDS011;9556;49.374;19.446;2023-05-10T00:47:40;5.38;;;3.35;;
18853;SDS011;9556;49.374;19.446;2023-05-10T00:50:08;5.30;;;3.28;;
18853;SDS011;9556;49.374;19.446;2023-05-10T00:52:35;4.68;;;3.00;;
18853;SDS011;9556;49.374;19.446;2023-05-10T00:55:02;3.75;;;2.90;;
18853;SDS011;9556;49.374;19.446;2023-05-10T00:57:31;5.10;;;2.90;;
18853;SDS011;9556;49.374;19.446;2023-05-10T00:59:59;4.10;;;3.00;;
18853;SDS011;9556;49.374;19.446;2023-05-10T01:02:26;6.13;;;3.50;;
18853;SDS011;9556;49.374;19.446;2023-05-10T01:04:53;5.00;;;3.50;;
18853;SDS011;9556;49.374;19.446;2023-05-10T01:07:22;5.00;;;3.00;;
18853;SDS011;9556;49.374;19.446;2023-05-10T01:09:49;9.60;;;3.67;;
18853;SDS011;9556;49.374;19.446;2023-05-10T01:12:16;4.78;;;3.50;;
18853;SDS011;9556;49.374;19.446;2023-05-10T01:14:45;5.95;;;3.90;;
18853;SDS011;9556;49.374;19.446;2023-05-10T01:17:12;5.68;;;3.80;;
18853;SDS011;9556;49.374;19.446;2023-05-10T01:19:40;6.70;;;3.17;;
18853;SDS011;9556;49.374;19.446;2023-05-10T01:22:11;4.20;;;2.95;;
18853;SDS011;9556;49.374;19.446;2023-05-10T01:24:56;4.43;;;3.30;;
18853;SDS011;9556;49.374;19.446;2023-05-10T01:30:38;8.00;;;3.60;;
18853;SDS011;9556;49.374;19.446;2023-05-10T01:33:11;5.97;;;3.45;;
18853;SDS011;9556;49.374;19.446;2023-05-10T01:35:43;5.35;;;3.95;;
18853;SDS011;9556;49.374;19.446;2023-05-10T01:38:17;6.38;;;3.58;;
18853;SDS011;9556;49.374;19.446;2023-05-10T01:40:48;5.07;;;3.40;;
18853;SDS011;9556;49.374;19.446;2023-05-10T01:43:20;4.55;;;3.10;;
18853;SDS011;9556;49.374;19.446;2023-05-10T01:45:50;4.70;;;3.22;;
18853;SDS011;9556;49.374;19.446;2023-05-10T01:48:20;4.68;;;3.17;;
18853;SDS011;9556;49.374;19.446;2023-05-10T01:50:47;5.15;;;3.63;;
18853;SDS011;9556;49.374;19.446;2023-05-10T01:53:17;7.97;;;4.20;;
18853;SDS011;9556;49.374;19.446;2023-05-10T01:55:46;16.83;;;7.85;;
18853;SDS011;9556;49.374;19.446;2023-05-10T01:58:15;15.32;;;7.35;;
18853;SDS011;9556;49.374;19.446;2023-05-10T02:00:44;11.32;;;6.18;;
18853;SDS011;9556;49.374;19.446;2023-05-10T02:03:12;8.13;;;4.70;;
18853;SDS011;9556;49.374;19.446;2023-05-10T02:05:41;6.25;;;4.05;;
18853;SDS011;9556;49.374;19.446;2023-05-10T02:08:10;5.25;;;3.17;;
18853;SDS011;9556;49.374;19.446;2023-05-10T02:10:38;6.00;;;3.80;;
18853;SDS011;9556;49.374;19.446;2023-05-10T02:13:06;4.90;;;3.35;;
18853;SDS011;9556;49.374;19.446;2023-05-10T02:15:34;3.85;;;2.92;;
18853;SDS011;9556;49.374;19.446;2023-05-10T02:18:01;4.63;;;3.15;;
18853;SDS011;9556;49.374;19.446;2023-05-10T02:20:30;5.13;;;3.33;;
18853;SDS011;9556;49.374;19.446;2023-05-10T02:22:59;4.45;;;3.08;;
18853;SDS011;9556;49.374;19.446;2023-05-10T02:25:28;4.30;;;3.00;;
18853;SDS011;9556;49.374;19.446;2023-05-10T02:27:56;4.03;;;3.10;;
18853;SDS011;9556;49.374;19.446;2023-05-10T02:30:24;5.93;;;3.15;;
18853;SDS011;9556;49.374;19.446;2023-05-10T02:32:52;4.93;;;3.03;;
18853;SDS011;9556;49.374;19.446;2023-05-10T02:35:20;4.50;;;3.08;;
18853;SDS011;9556;49.374;19.446;2023-05-10T02:37:47;6.03;;;3.38;;
18853;SDS011;9556;49.374;19.446;2023-05-10T02:40:16;6.43;;;3.03;;
18853;SDS011;9556;49.374;19.446;2023-05-10T02:42:44;4.70;;;3.00;;
18853;SDS011;9556;49.374;19.446;2023-05-10T02:45:14;5.22;;;3.03;;
18853;SDS011;9556;49.374;19.446;2023-05-10T02:47:42;5.28;;;3.03;;
18853;SDS011;9556;49.374;19.446;2023-05-10T02:50:09;4.18;;;3.05;;
18853;SDS011;9556;49.374;19.446;2023-05-10T02:52:39;5.03;;;2.90;;
18853;SDS011;9556;49.374;19.446;2023-05-10T02:55:07;4.50;;;2.80;;
18853;SDS011;9556;49.374;19.446;2023-05-10T02:57:38;5.43;;;3.00;;
18853;SDS011;9556;49.374;19.446;2023-05-10T03:00:06;4.53;;;3.05;;
18853;SDS011;9556;49.374;19.446;2023-05-10T03:02:33;5.50;;;3.50;;
18853;SDS011;9556;49.374;19.446;2023-05-10T03:05:01;6.28;;;3.72;;
18853;SDS011;9556;49.374;19.446;2023-05-10T03:07:29;6.13;;;3.85;;
18853;SDS011;9556;49.374;19.446;2023-05-10T03:09:56;5.28;;;3.58;;
18853;SDS011;9556;49.374;19.446;2023-05-10T03:12:26;5.82;;;3.45;;
18853;SDS011;9556;49.374;19.446;2023-05-10T03:14:57;6.40;;;3.15;;
18853;SDS011;9556;49.374;19.446;2023-05-10T03:17:29;6.40;;;3.58;;
18853;SDS011;9556;49.374;19.446;2023-05-10T03:19:58;4.85;;;3.50;;
18853;SDS011;9556;49.374;19.446;2023-05-10T03:22:26;5.15;;;3.55;;
18853;SDS011;9556;49.374;19.446;2023-05-10T03:24:55;5.25;;;3.55;;
18853;SDS011;9556;49.374;19.446;2023-05-10T03:27:23;4.60;;;3.38;;
18853;SDS011;9556;49.374;19.446;2023-05-10T03:29:52;10.85;;;3.60;;
18853;SDS011;9556;49.374;19.446;2023-05-10T03:32:20;6.93;;;3.60;;
18853;SDS011;9556;49.374;19.446;2023-05-10T03:34:48;7.60;;;3.40;;
18853;SDS011;9556;49.374;19.446;2023-05-10T03:37:15;6.38;;;3.53;;
18853;SDS011;9556;49.374;19.446;2023-05-10T03:39:42;7.47;;;3.60;;
18853;SDS011;9556;49.374;19.446;2023-05-10T03:42:09;6.47;;;3.67;;
18853;SDS011;9556;49.374;19.446;2023-05-10T03:44:37;4.97;;;3.60;;
18853;SDS011;9556;49.374;19.446;2023-05-10T03:47:04;5.30;;;3.35;;
18853;SDS011;9556;49.374;19.446;2023-05-10T03:49:33;6.40;;;3.70;;
18853;SDS011;9556;49.374;19.446;2023-05-10T03:52:00;7.70;;;3.38;;
18853;SDS011;9556;49.374;19.446;2023-05-10T03:54:27;5.55;;;3.20;;
18853;SDS011;9556;49.374;19.446;2023-05-10T03:56:54;3.85;;;3.10;;
18853;SDS011;9556;49.374;19.446;2023-05-10T03:59:21;5.32;;;3.47;;
18853;SDS011;9556;49.374;19.446;2023-05-10T04:01:49;6.85;;;4.13;;
18853;SDS011;9556;49.374;19.446;2023-05-10T04:04:16;5.70;;;3.55;;
18853;SDS011;9556;49.374;19.446;2023-05-10T04:06:44;5.90;;;3.30;;
18853;SDS011;9556;49.374;19.446;2023-05-10T04:09:12;8.07;;;3.72;;
18853;SDS011;9556;49.374;19.446;2023-05-10T04:11:39;7.95;;;3.53;;
18853;SDS011;9556;49.374;19.446;2023-05-10T04:14:06;5.45;;;3.60;;
18853;SDS011;9556;49.374;19.446;2023-05-10T04:16:34;8.65;;;4.68;;
18853;SDS011;9556;49.374;19.446;2023-05-10T04:19:01;6.18;;;4.38;;
18853;SDS011;9556;49.374;19.446;2023-05-10T04:21:28;6.63;;;3.72;;
18853;SDS011;9556;49.374;19.446;2023-05-10T04:23:57;6.07;;;3.53;;
18853;SDS011;9556;49.374;19.446;2023-05-10T04:26:24;4.47;;;3.25;;
18853;SDS011;9556;49.374;19.446;2023-05-10T04:28:51;5.22;;;3.10;;
18853;SDS011;9556;49.374;19.446;2023-05-10T04:31:18;5.13;;;3.08;;
18853;SDS011;9556;49.374;19.446;2023-05-10T04:33:46;3.92;;;2.72;;
18853;SDS011;9556;49.374;19.446;2023-05-10T04:36:14;4.40;;;2.90;;
18853;SDS011;9556;49.374;19.446;2023-05-10T04:38:42;3.60;;;2.47;;
18853;SDS011;9556;49.374;19.446;2023-05-10T04:41:10;4.32;;;2.90;;
18853;SDS011;9556;49.374;19.446;2023-05-10T04:43:38;5.30;;;3.20;;
18853;SDS011;9556;49.374;19.446;2023-05-10T04:46:05;4.05;;;2.95;;
18853;SDS011;9556;49.374;19.446;2023-05-10T04:48:33;4.47;;;3.00;;
18853;SDS011;9556;49.374;19.446;2023-05-10T04:51:00;5.20;;;3.17;;
18853;SDS011;9556;49.374;19.446;2023-05-10T04:53:28;4.80;;;2.90;;
18853;SDS011;9556;49.374;19.446;2023-05-10T04:55:56;4.90;;;3.00;;
18853;SDS011;9556;49.374;19.446;2023-05-10T04:58:24;4.80;;;2.97;;
18853;SDS011;9556;49.374;19.446;2023-05-10T05:00:51;3.70;;;2.60;;
18853;SDS011;9556;49.374;19.446;2023-05-10T05:03:18;5.00;;;3.22;;
18853;SDS011;9556;49.374;19.446;2023-05-10T05:05:47;5.07;;;2.92;;
18853;SDS011;9556;49.374;19.446;2023-05-10T05:08:14;5.15;;;2.78;;
18853;SDS011;9556;49.374;19.446;2023-05-10T05:10:41;4.35;;;2.80;;
18853;SDS011;9556;49.374;19.446;2023-05-10T05:13:08;5.88;;;3.13;;
18853;SDS011;9556;49.374;19.446;2023-05-10T05:15:37;4.88;;;3.03;;
18853;SDS011;9556;49.374;19.446;2023-05-10T05:18:04;4.38;;;3.05;;
18853;SDS011;9556;49.374;19.446;2023-05-10T05:20:32;4.63;;;3.15;;
18853;SDS011;9556;49.374;19.446;2023-05-10T05:22:59;5.05;;;3.25;;
18853;SDS011;9556;49.374;19.446;2023-05-10T05:25:26;4.70;;;2.75;;
18853;SDS011;9556;49.374;19.446;2023-05-10T05:27:53;4.53;;;3.22;;
18853;SDS011;9556;49.374;19.446;2023-05-10T05:30:21;3.75;;;2.78;;
18853;SDS011;9556;49.374;19.446;2023-05-10T05:32:49;5.85;;;3.55;;
18853;SDS011;9556;49.374;19.446;2023-05-10T05:35:17;5.97;;;3.85;;
18853;SDS011;9556;49.374;19.446;2023-05-10T05:37:44;7.15;;;4.13;;
18853;SDS011;9556;49.374;19.446;2023-05-10T05:40:12;6.93;;;4.40;;
18853;SDS011;9556;49.374;19.446;2023-05-10T05:42:39;8.85;;;4.32;;
18853;SDS011;9556;49.374;19.446;2023-05-10T05:45:06;9.38;;;4.20;;
18853;SDS011;9556;49.374;19.446;2023-05-10T05:47:37;5.43;;;3.67;;
18853;SDS011;9556;49.374;19.446;2023-05-10T05:50:06;6.90;;;3.75;;
18853;SDS011;9556;49.374;19.446;2023-05-10T05:52:34;9.63;;;3.50;;
18853;SDS011;9556;49.374;19.446;2023-05-10T05:55:01;7.53;;;3.72;;
18853;SDS011;9556;49.374;19.446;2023-05-10T05:57:28;4.90;;;3.38;;
18853;SDS011;9556;49.374;19.446;2023-05-10T05:59:55;5.35;;;3.72;;
18853;SDS011;9556;49.374;19.446;2023-05-10T06:02:23;5.68;;;3.70;;
18853;SDS011;9556;49.374;19.446;2023-05-10T06:04:50;6.10;;;3.78;;
18853;SDS011;9556;49.374;19.446;2023-05-10T06:07:18;5.70;;;3.70;;
18853;SDS011;9556;49.374;19.446;2023-05-10T06:09:46;4.43;;;3.40;;
18853;SDS011;9556;49.374;19.446;2023-05-10T06:12:13;6.28;;;3.42;;
18853;SDS011;9556;49.374;19.446;2023-05-10T06:14:40;5.50;;;3.40;;
18853;SDS011;9556;49.374;19.446;2023-05-10T06:17:08;5.22;;;3.10;;
18853;SDS011;9556;49.374;19.446;2023-05-10T06:19:35;5.25;;;3.50;;
18853;SDS011;9556;49.374;19.446;2023-05-10T06:22:02;4.95;;;3.17;;
18853;SDS011;9556;49.374;19.446;2023-05-10T06:24:31;6.75;;;2.80;;
18853;SDS011;9556;49.374;19.446;2023-05-10T06:26:58;4.82;;;3.15;;
18853;SDS011;9556;49.374;19.446;2023-05-10T06:29:25;4.25;;;3.20;;
18853;SDS011;9556;49.374;19.446;2023-05-10T06:31:52;3.90;;;2.78;;
18853;SDS011;9556;49.374;19.446;2023-05-10T06:34:20;5.15;;;3.13;;
18853;SDS011;9556;49.374;19.446;2023-05-10T06:36:47;5.05;;;3.33;;
18853;SDS011;9556;49.374;19.446;2023-05-10T06:39:14;4.53;;;3.40;;
18853;SDS011;9556;49.374;19.446;2023-05-10T06:41:43;5.82;;;3.55;;
18853;SDS011;9556;49.374;19.446;2023-05-10T06:44:10;4.00;;;3.13;;
18853;SDS011;9556;49.374;19.446;2023-05-10T06:46:38;8.55;;;3.33;;
18853;SDS011;9556;49.374;19.446;2023-05-10T06:49:05;4.35;;;3.17;;
18853;SDS011;9556;49.374;19.446;2023-05-10T06:51:32;3.90;;;2.95;;
18853;SDS011;9556;49.374;19.446;2023-05-10T06:53:59;4.68;;;3.10;;
18853;SDS011;9556;49.374;19.446;2023-05-10T06:56:26;4.53;;;3.20;;
18853;SDS011;9556;49.374;19.446;2023-05-10T06:58:55;5.20;;;3.20;;
18853;SDS011;9556;49.374;19.446;2023-05-10T07:01:22;4.38;;;3.10;;
18853;SDS011;9556;49.374;19.446;2023-05-10T07:03:50;10.15;;;3.17;;
18853;SDS011;9556;49.374;19.446;2023-05-10T07:06:17;6.22;;;3.40;;
18853;SDS011;9556;49.374;19.446;2023-05-10T07:08:44;5.32;;;3.72;;
18853;SDS011;9556;49.374;19.446;2023-05-10T07:11:11;5.82;;;3.78;;
18853;SDS011;9556;49.374;19.446;2023-05-10T07:13:38;6.13;;;4.13;;
18853;SDS011;9556;49.374;19.446;2023-05-10T07:16:10;5.03;;;3.30;;
18853;SDS011;9556;49.374;19.446;2023-05-10T07:18:37;6.57;;;3.50;;
18853;SDS011;9556;49.374;19.446;2023-05-10T07:21:04;5.97;;;4.05;;
18853;SDS011;9556;49.374;19.446;2023-05-10T07:23:32;6.55;;;3.55;;
18853;SDS011;9556;49.374;19.446;2023-05-10T07:25:59;5.65;;;3.60;;
18853;SDS011;9556;49.374;19.446;2023-05-10T07:28:27;6.20;;;3.55;;
18853;SDS011;9556;49.374;19.446;2023-05-10T07:30:54;5.07;;;3.38;;
18853;SDS011;9556;49.374;19.446;2023-05-10T07:33:23;7.57;;;3.63;;
18853;SDS011;9556;49.374;19.446;2023-05-10T07:35:50;5.88;;;3.30;;
18853;SDS011;9556;49.374;19.446;2023-05-10T07:38:17;4.50;;;3.38;;
18853;SDS011;9556;49.374;19.446;2023-05-10T07:40:44;8.27;;;3.50;;
18853;SDS011;9556;49.374;19.446;2023-05-10T07:43:11;3.60;;;2.70;;
18853;SDS011;9556;49.374;19.446;2023-05-10T07:45:38;3.78;;;2.70;;
18853;SDS011;9556;49.374;19.446;2023-05-10T07:48:06;3.80;;;2.67;;
18853;SDS011;9556;49.374;19.446;2023-05-10T07:50:34;6.65;;;3.13;;
18853;SDS011;9556;49.374;19.446;2023-05-10T07:53:01;4.35;;;2.95;;
18853;SDS011;9556;49.374;19.446;2023-05-10T07:55:28;3.85;;;2.50;;
18853;SDS011;9556;49.374;19.446;2023-05-10T07:57:56;5.13;;;2.75;;
18853;SDS011;9556;49.374;19.446;2023-05-10T08:00:26;5.25;;;2.67;;
18853;SDS011;9556;49.374;19.446;2023-05-10T08:02:53;7.20;;;2.40;;
18853;SDS011;9556;49.374;19.446;2023-05-10T08:05:20;3.53;;;2.47;;
18853;SDS011;9556;49.374;19.446;2023-05-10T08:07:48;4.80;;;2.40;;
18853;SDS011;9556;49.374;19.446;2023-05-10T08:10:16;3.38;;;2.53;;
18853;SDS011;9556;49.374;19.446;2023-05-10T08:12:43;3.47;;;2.72;;
18853;SDS011;9556;49.374;19.446;2023-05-10T08:15:10;4.13;;;2.90;;
18853;SDS011;9556;49.374;19.446;2023-05-10T08:17:38;4.75;;;2.65;;
18853;SDS011;9556;49.374;19.446;2023-05-10T08:20:05;5.57;;;2.67;;
18853;SDS011;9556;49.374;19.446;2023-05-10T08:22:32;2.97;;;2.50;;
18853;SDS011;9556;49.374;19.446;2023-05-10T08:25:01;4.32;;;2.47;;
18853;SDS011;9556;49.374;19.446;2023-05-10T08:27:28;3.03;;;2.03;;
18853;SDS011;9556;49.374;19.446;2023-05-10T08:29:55;3.03;;;2.22;;
18853;SDS011;9556;49.374;19.446;2023-05-10T08:32:22;3.50;;;2.40;;
18853;SDS011;9556;49.374;19.446;2023-05-10T08:34:50;3.97;;;2.22;;
18853;SDS011;9556;49.374;19.446;2023-05-10T08:37:17;5.18;;;2.50;;
18853;SDS011;9556;49.374;19.446;2023-05-10T08:39:44;3.65;;;2.35;;
18853;SDS011;9556;49.374;19.446;2023-05-10T08:42:14;4.07;;;2.55;;
18853;SDS011;9556;49.374;19.446;2023-05-10T08:44:43;4.18;;;2.30;;
18853;SDS011;9556;49.374;19.446;2023-05-10T08:47:11;3.03;;;1.90;;
18853;SDS011;9556;49.374;19.446;2023-05-10T08:49:39;6.13;;;2.20;;
18853;SDS011;9556;49.374;19.446;2023-05-10T08:52:07;3.70;;;2.45;;
18853;SDS011;9556;49.374;19.446;2023-05-10T08:54:34;3.85;;;2.25;;
18853;SDS011;9556;49.374;19.446;2023-05-10T08:57:02;2.38;;;1.98;;
18853;SDS011;9556;49.374;19.446;2023-05-10T08:59:31;5.47;;;2.30;;
18853;SDS011;9556;49.374;19.446;2023-05-10T09:01:58;4.40;;;2.15;;
18853;SDS011;9556;49.374;19.446;2023-05-10T09:04:26;3.17;;;2.13;;
18853;SDS011;9556;49.374;19.446;2023-05-10T09:06:53;3.40;;;2.33;;
18853;SDS011;9556;49.374;19.446;2023-05-10T09:09:20;2.95;;;1.90;;
18853;SDS011;9556;49.374;19.446;2023-05-10T09:11:48;2.88;;;1.98;;
18853;SDS011;9556;49.374;19.446;2023-05-10T09:14:15;2.30;;;1.95;;
18853;SDS011;9556;49.374;19.446;2023-05-10T09:16:44;2.78;;;2.25;;
18853;SDS011;9556;49.374;19.446;2023-05-10T09:19:12;4.85;;;1.90;;
18853;SDS011;9556;49.374;19.446;2023-05-10T09:21:39;3.25;;;2.30;;
18853;SDS011;9556;49.374;19.446;2023-05-10T09:24:06;2.30;;;1.80;;
18853;SDS011;9556;49.374;19.446;2023-05-10T09:26:34;2.63;;;2.00;;
18853;SDS011;9556;49.374;19.446;2023-05-10T09:29:01;4.25;;;1.80;;
18853;SDS011;9556;49.374;19.446;2023-05-10T09:31:46;4.45;;;2.00;;
18853;SDS011;9556;49.374;19.446;2023-05-10T09:34:16;3.10;;;1.80;;
18853;SDS011;9556;49.374;19.446;2023-05-10T09:36:50;2.70;;;1.90;;
18853;SDS011;9556;49.374;19.446;2023-05-10T09:39:17;2.28;;;1.75;;
18853;SDS011;9556;49.374;19.446;2023-05-10T09:41:45;3.20;;;1.83;;
18853;SDS011;9556;49.374;19.446;2023-05-10T09:44:12;3.38;;;2.05;;
18853;SDS011;9556;49.374;19.446;2023-05-10T09:46:49;2.58;;;1.65;;
18853;SDS011;9556;49.374;19.446;2023-05-10T09:49:17;2.45;;;1.70;;
18853;SDS011;9556;49.374;19.446;2023-05-10T09:51:45;2.42;;;2.05;;
18853;SDS011;9556;49.374;19.446;2023-05-10T09:54:13;3.08;;;1.85;;
18853;SDS011;9556;49.374;19.446;2023-05-10T09:56:40;4.35;;;1.73;;
18853;SDS011;9556;49.374;19.446;2023-05-10T09:59:09;1.90;;;1.70;;
18853;SDS011;9556;49.374;19.446;2023-05-10T10:01:36;2.35;;;1.50;;
18853;SDS011;9556;49.374;19.446;2023-05-10T10:04:05;3.42;;;1.80;;
18853;SDS011;9556;49.374;19.446;2023-05-10T10:06:36;2.85;;;1.75;;
18853;SDS011;9556;49.374;19.446;2023-05-10T10:09:03;1.90;;;1.55;;
18853;SDS011;9556;49.374;19.446;2023-05-10T10:11:31;2.67;;;1.65;;
18853;SDS011;9556;49.374;19.446;2023-05-10T10:13:58;2.90;;;1.80;;
18853;SDS011;9556;49.374;19.446;2023-05-10T10:16:26;2.05;;;1.48;;
18853;SDS011;9556;49.374;19.446;2023-05-10T10:18:54;1.90;;;1.50;;
18853;SDS011;9556;49.374;19.446;2023-05-10T10:21:23;2.95;;;1.60;;
18853;SDS011;9556;49.374;19.446;2023-05-10T10:23:50;2.65;;;1.77;;
18853;SDS011;9556;49.374;19.446;2023-05-10T10:26:18;3.17;;;1.80;;
18853;SDS011;9556;49.374;19.446;2023-05-10T10:28:47;2.13;;;1.75;;
18853;SDS011;9556;49.374;19.446;2023-05-10T10:31:18;2.13;;;1.60;;
18853;SDS011;9556;49.374;19.446;2023-05-10T10:33:55;2.33;;;1.48;;
18853;SDS011;9556;49.374;19.446;2023-05-10T10:36:27;3.60;;;2.58;;
18853;SDS011;9556;49.374;19.446;2023-05-10T10:38:56;2.95;;;2.40;;
18853;SDS011;9556;49.374;19.446;2023-05-10T10:41:29;2.45;;;1.90;;
18853;SDS011;9556;49.374;19.446;2023-05-10T10:49:25;1.95;;;1.60;;
18853;SDS011;9556;49.374;19.446;2023-05-10T10:54:40;1.83;;;1.42;;
18853;SDS011;9556;49.374;19.446;2023-05-10T10:57:10;2.10;;;1.50;;
18853;SDS011;9556;49.374;19.446;2023-05-10T10:59:41;2.25;;;1.50;;
18853;SDS011;9556;49.374;19.446;2023-05-10T11:02:09;3.47;;;1.75;;
18853;SDS011;9556;49.374;19.446;2023-05-10T11:04:42;2.22;;;1.60;;
18853;SDS011;9556;49.374;19.446;2023-05-10T11:07:17;1.50;;;1.30;;
18853;SDS011;9556;49.374;19.446;2023-05-10T11:09:47;1.58;;;1.20;;
18853;SDS011;9556;49.374;19.446;2023-05-10T11:12:14;1.77;;;1.42;;
18853;SDS011;9556;49.374;19.446;2023-05-10T11:14:41;2.05;;;1.30;;
18853;SDS011;9556;49.374;19.446;2023-05-10T11:17:23;1.95;;;1.58;;
18853;SDS011;9556;49.374;19.446;2023-05-10T11:20:06;1.95;;;1.25;;
18853;SDS011;9556;49.374;19.446;2023-05-10T11:22:48;2.50;;;1.40;;
18853;SDS011;9556;49.374;19.446;2023-05-10T11:25:18;1.58;;;1.40;;
18853;SDS011;9556;49.374;19.446;2023-05-10T11:27:46;1.80;;;1.45;;
18853;SDS011;9556;49.374;19.446;2023-05-10T11:30:14;1.50;;;1.40;;
18853;SDS011;9556;49.374;19.446;2023-05-10T11:32:41;2.05;;;1.38;;
18853;SDS011;9556;49.374;19.446;2023-05-10T11:35:09;4.03;;;1.50;;
18853;SDS011;9556;49.374;19.446;2023-05-10T11:37:37;1.75;;;1.55;;
18853;SDS011;9556;49.374;19.446;2023-05-10T11:40:09;1.40;;;1.27;;
18853;SDS011;9556;49.374;19.446;2023-05-10T11:42:38;1.38;;;1.23;;
18853;SDS011;9556;49.374;19.446;2023-05-10T11:45:05;1.42;;;1.30;;
18853;SDS011;9556;49.374;19.446;2023-05-10T11:47:33;3.88;;;1.20;;
18853;SDS011;9556;49.374;19.446;2023-05-10T11:50:02;4.05;;;1.33;;
18853;SDS011;9556;49.374;19.446;2023-05-10T11:52:29;3.72;;;2.30;;
18853;SDS011;9556;49.374;19.446;2023-05-10T11:55:02;9.75;;;6.68;;
18853;SDS011;9556;49.374;19.446;2023-05-10T11:57:30;5.60;;;5.00;;
18853;SDS011;9556;49.374;19.446;2023-05-10T11:59:58;4.38;;;3.55;;
18853;SDS011;9556;49.374;19.446;2023-05-10T12:02:26;2.95;;;2.10;;
18853;SDS011;9556;49.374;19.446;2023-05-10T12:04:54;5.78;;;3.75;;
18853;SDS011;9556;49.374;19.446;2023-05-10T12:07:22;4.28;;;2.97;;
18853;SDS011;9556;49.374;19.446;2023-05-10T12:10:05;2.60;;;1.60;;
18853;SDS011;9556;49.374;19.446;2023-05-10T12:12:38;2.28;;;1.42;;
18853;SDS011;9556;49.374;19.446;2023-05-10T12:15:11;1.70;;;1.50;;
18853;SDS011;9556;49.374;19.446;2023-05-10T12:17:39;1.83;;;1.58;;
18853;SDS011;9556;49.374;19.446;2023-05-10T12:20:16;1.90;;;1.50;;
18853;SDS011;9556;49.374;19.446;2023-05-10T12:22:47;2.78;;;1.50;;
18853;SDS011;9556;49.374;19.446;2023-05-10T12:25:14;3.00;;;2.10;;
18853;SDS011;9556;49.374;19.446;2023-05-10T12:27:47;2.78;;;1.67;;
18853;SDS011;9556;49.374;19.446;2023-05-10T12:30:19;3.95;;;2.47;;
18853;SDS011;9556;49.374;19.446;2023-05-10T12:32:47;5.28;;;3.53;;
18853;SDS011;9556;49.374;19.446;2023-05-10T12:35:14;4.07;;;2.85;;
18853;SDS011;9556;49.374;19.446;2023-05-10T12:37:42;3.60;;;2.40;;
18853;SDS011;9556;49.374;19.446;2023-05-10T12:40:10;3.38;;;2.30;;
18853;SDS011;9556;49.374;19.446;2023-05-10T12:42:38;6.60;;;2.75;;
18853;SDS011;9556;49.374;19.446;2023-05-10T12:45:06;5.72;;;3.15;;
18853;SDS011;9556;49.374;19.446;2023-05-10T12:47:35;2.45;;;1.80;;
18853;SDS011;9556;49.374;19.446;2023-05-10T12:50:02;2.00;;;1.60;;
18853;SDS011;9556;49.374;19.446;2023-05-10T12:52:30;2.22;;;1.67;;
18853;SDS011;9556;49.374;19.446;2023-05-10T12:54:58;3.42;;;1.77;;
18853;SDS011;9556;49.374;19.446;2023-05-10T12:57:25;1.70;;;1.40;;
18853;SDS011;9556;49.374;19.446;2023-05-10T12:59:53;3.15;;;1.70;;
18853;SDS011;9556;49.374;19.446;2023-05-10T13:02:20;2.92;;;1.63;;
18853;SDS011;9556;49.374;19.446;2023-05-10T13:04:49;2.97;;;1.55;;
18853;SDS011;9556;49.374;19.446;2023-05-10T13:07:17;1.92;;;1.45;;
18853;SDS011;9556;49.374;19.446;2023-05-10T13:09:44;3.08;;;1.58;;
18853;SDS011;9556;49.374;19.446;2023-05-10T13:12:11;1.98;;;1.55;;
18853;SDS011;9556;49.374;19.446;2023-05-10T13:14:38;2.75;;;1.60;;
18853;SDS011;9556;49.374;19.446;2023-05-10T13:17:06;2.08;;;1.45;;
18853;SDS011;9556;49.374;19.446;2023-05-10T13:19:33;2.20;;;1.33;;
18853;SDS011;9556;49.374;19.446;2023-05-10T13:22:02;1.58;;;1.48;;
18853;SDS011;9556;49.374;19.446;2023-05-10T13:24:29;1.45;;;1.30;;
18853;SDS011;9556;49.374;19.446;2023-05-10T13:26:57;1.88;;;1.50;;
18853;SDS011;9556;49.374;19.446;2023-05-10T13:29:24;2.22;;;1.45;;
18853;SDS011;9556;49.374;19.446;2023-05-10T13:31:51;2.58;;;1.60;;
18853;SDS011;9556;49.374;19.446;2023-05-10T13:34:18;2.35;;;1.40;;
18853;SDS011;9556;49.374;19.446;2023-05-10T13:36:46;2.10;;;1.67;;
18853;SDS011;9556;49.374;19.446;2023-05-10T13:39:15;1.50;;;1.40;;
18853;SDS011;9556;49.374;19.446;2023-05-10T13:41:42;2.00;;;1.42;;
18853;SDS011;9556;49.374;19.446;2023-05-10T13:44:11;2.13;;;1.50;;
18853;SDS011;9556;49.374;19.446;2023-05-10T13:46:38;2.10;;;1.42;;
18853;SDS011;9556;49.374;19.446;2023-05-10T13:49:06;1.63;;;1.33;;
18853;SDS011;9556;49.374;19.446;2023-05-10T13:51:33;9.00;;;1.60;;
18853;SDS011;9556;49.374;19.446;2023-05-10T13:54:00;4.70;;;1.70;;
18853;SDS011;9556;49.374;19.446;2023-05-10T13:56:29;2.70;;;1.70;;
18853;SDS011;9556;49.374;19.446;2023-05-10T13:58:56;2.78;;;1.85;;
18853;SDS011;9556;49.374;19.446;2023-05-10T14:01:24;2.42;;;1.70;;
18853;SDS011;9556;49.374;19.446;2023-05-10T14:03:51;2.42;;;1.52;;
18853;SDS011;9556;49.374;19.446;2023-05-10T14:06:18;3.35;;;1.50;;
18853;SDS011;9556;49.374;19.446;2023-05-10T14:08:45;4.18;;;1.40;;
18853;SDS011;9556;49.374;19.446;2023-05-10T14:11:14;7.13;;;1.52;;
18853;SDS011;9556;49.374;19.446;2023-05-10T14:13:42;2.00;;;1.70;;
18853;SDS011;9556;49.374;19.446;2023-05-10T14:16:09;2.45;;;1.60;;
18853;SDS011;9556;49.374;19.446;2023-05-10T14:18:37;1.92;;;1.50;;
18853;SDS011;9556;49.374;19.446;2023-05-10T14:21:04;7.40;;;1.85;;
18853;SDS011;9556;49.374;19.446;2023-05-10T14:23:31;2.60;;;1.67;;
18853;SDS011;9556;49.374;19.446;2023-05-10T14:25:58;2.55;;;1.65;;
18853;SDS011;9556;49.374;19.446;2023-05-10T14:28:25;2.88;;;1.60;;
18853;SDS011;9556;49.374;19.446;2023-05-10T14:30:54;3.05;;;1.60;;
18853;SDS011;9556;49.374;19.446;2023-05-10T14:33:21;2.40;;;1.45;;
18853;SDS011;9556;49.374;19.446;2023-05-10T14:35:48;2.10;;;1.27;;
18853;SDS011;9556;49.374;19.446;2023-05-10T14:38:15;2.65;;;1.40;;
18853;SDS011;9556;49.374;19.446;2023-05-10T14:40:43;2.55;;;1.38;;
18853;SDS011;9556;49.374;19.446;2023-05-10T14:43:10;1.67;;;1.30;;
18853;SDS011;9556;49.374;19.446;2023-05-10T14:45:37;13.27;;;8.07;;
18853;SDS011;9556;49.374;19.446;2023-05-10T14:48:06;3.80;;;3.05;;
18853;SDS011;9556;49.374;19.446;2023-05-10T14:50:37;3.75;;;2.15;;
18853;SDS011;9556;49.374;19.446;2023-05-10T14:53:04;2.47;;;1.90;;
18853;SDS011;9556;49.374;19.446;2023-05-10T14:55:31;3.63;;;2.00;;
18853;SDS011;9556;49.374;19.446;2023-05-10T14:57:59;2.75;;;1.60;;
18853;SDS011;9556;49.374;19.446;2023-05-10T15:00:29;5.80;;;2.08;;
18853;SDS011;9556;49.374;19.446;2023-05-10T15:02:57;2.33;;;1.80;;
18853;SDS011;9556;49.374;19.446;2023-05-10T15:05:25;2.60;;;2.22;;